Terminal Aerodrome Forecast
Issued by NWS

Home | Current Version | Previous Version | Text Only | Print | Product List | Glossary On
Versions: 1 2 3 4 5 6 7 8 9 10 11 12 13 14 15 16 17 18 19 20 21 22 23 24 25 26 27 28
000
FTUS42 KTAE 131122
TAFABY
TAF
KABY 131122Z 1312/1412 06007KT 4SM -RA BR OVC006
     FM131900 06005KT P6SM OVC007
     FM140000 04005KT 4SM -RA BR OVC003
     FM140600 30005KT P6SM OVC003=

USA.gov is the U.S. government's official web portal to all federal, state and local government web resources and services.